Time;durP1;ratioP1;P1;durP2;ratioP2;P2;SDS_P1;SDS_P2;PMS_P1;PMS_P2;Temp;Humidity;BMP_temperature;BMP_pressure;BME280_temperature;BME280_humidity;BME280_pressure;Samples;Min_cycle;Max_cycle;Signal;HPM_P1;HPM_P2
2021/07/22 00:00:23;;;;;;;15.10;9.40;;;18.20;99.90;;;;;;5038736;28;20110;-74
2021/07/22 00:02:50;;;;;;;14.15;8.88;;;18.10;99.90;;;;;;5038212;28;20145;-74
2021/07/22 00:05:18;;;;;;;15.05;8.95;;;18.00;99.90;;;;;;5038086;28;20951;-74
2021/07/22 00:07:47;;;;;;;13.88;9.30;;;18.10;99.90;;;;;;5038355;28;20493;-74
2021/07/22 00:10:15;;;;;;;14.57;8.60;;;18.20;99.90;;;;;;5037574;28;20102;-74
2021/07/22 00:12:43;;;;;;;13.98;9.20;;;18.00;99.90;;;;;;5039529;28;20079;-75
2021/07/22 00:15:11;;;;;;;14.52;9.60;;;18.00;99.90;;;;;;5037526;28;20157;-74
2021/07/22 00:17:38;;;;;;;16.55;9.52;;;18.00;99.90;;;;;;5037355;28;20048;-74
2021/07/22 00:20:07;;;;;;;17.27;10.20;;;18.00;99.90;;;;;;5037611;28;20542;-74
2021/07/22 00:22:37;;;;;;;16.05;9.32;;;17.90;99.90;;;;;;5037075;28;20051;-74
2021/07/22 00:25:07;;;;;;;18.08;9.98;;;17.90;99.90;;;;;;5038011;28;20386;-74
2021/07/22 00:27:34;;;;;;;17.42;9.93;;;17.80;99.90;;;;;;5036524;28;20513;-73
2021/07/22 00:30:01;;;;;;;14.73;9.85;;;17.80;99.90;;;;;;5039409;28;20418;-73
2021/07/22 00:32:28;;;;;;;16.45;10.23;;;17.90;99.90;;;;;;5036170;28;20102;-73
2021/07/22 00:34:55;;;;;;;15.23;9.90;;;17.80;99.90;;;;;;5038349;28;20052;-73
2021/07/22 00:37:22;;;;;;;14.57;9.70;;;17.80;99.90;;;;;;5037645;28;20056;-72
2021/07/22 00:39:49;;;;;;;16.70;10.02;;;17.80;99.90;;;;;;5036220;28;20049;-72
2021/07/22 00:42:17;;;;;;;18.13;9.95;;;17.80;99.90;;;;;;5036825;28;20056;-72
2021/07/22 00:44:45;;;;;;;15.52;9.02;;;17.80;99.90;;;;;;5037033;28;20122;-72
2021/07/22 00:47:11;;;;;;;16.23;10.98;;;17.70;99.90;;;;;;5037753;28;20577;-72
2021/07/22 00:49:39;;;;;;;17.70;10.40;;;17.70;99.90;;;;;;5035301;28;20090;-72
2021/07/22 00:52:06;;;;;;;18.02;10.43;;;17.60;99.90;;;;;;5037545;28;20055;-73
2021/07/22 00:54:33;;;;;;;15.00;10.07;;;17.60;99.90;;;;;;5038083;28;20044;-73
2021/07/22 00:57:00;;;;;;;16.48;10.63;;;17.60;99.90;;;;;;5038805;28;20053;-73
2021/07/22 00:59:28;;;;;;;17.58;9.85;;;17.50;99.90;;;;;;5035746;28;20136;-73
2021/07/22 01:01:56;;;;;;;24.48;10.32;;;17.40;99.90;;;;;;5036675;28;20087;-73
2021/07/22 01:04:23;;;;;;;18.58;10.65;;;17.50;99.90;;;;;;5038404;28;20048;-73
2021/07/22 01:06:50;;;;;;;17.15;10.48;;;17.50;99.90;;;;;;5038502;28;20118;-72
2021/07/22 01:09:17;;;;;;;16.30;10.40;;;17.40;99.90;;;;;;5037250;28;20052;-72
2021/07/22 01:11:44;;;;;;;14.80;9.85;;;17.30;99.90;;;;;;5038105;28;20083;-72
2021/07/22 01:14:10;;;;;;;18.45;10.85;;;17.20;99.90;;;;;;5037461;28;20056;-73
2021/07/22 01:16:39;;;;;;;21.08;11.13;;;17.20;99.90;;;;;;5038863;28;20051;-73
2021/07/22 01:19:06;;;;;;;17.15;10.75;;;17.20;99.90;;;;;;5036265;28;20133;-71
2021/07/22 01:21:34;;;;;;;15.40;10.30;;;17.10;99.90;;;;;;5039136;28;20098;-73
2021/07/22 01:24:01;;;;;;;16.40;10.63;;;17.10;99.90;;;;;;5037690;28;20173;-73
2021/07/22 01:26:28;;;;;;;14.75;9.73;;;17.10;99.90;;;;;;5037449;28;20080;-72
2021/07/22 01:28:55;;;;;;;18.23;10.98;;;17.10;99.90;;;;;;5037126;28;20080;-73
2021/07/22 01:31:25;;;;;;;17.05;10.25;;;17.10;99.90;;;;;;5037421;28;20501;-73
2021/07/22 01:33:52;;;;;;;16.95;10.70;;;17.00;99.90;;;;;;5036071;28;20051;-72
2021/07/22 01:36:22;;;;;;;19.08;10.60;;;17.10;99.90;;;;;;5037193;28;20133;-73
2021/07/22 01:38:52;;;;;;;18.88;11.32;;;17.00;99.90;;;;;;5037033;28;20052;-73
2021/07/22 01:41:19;;;;;;;15.40;10.45;;;17.00;99.90;;;;;;5037673;28;20052;-72
2021/07/22 01:43:47;;;;;;;17.48;10.75;;;16.90;99.90;;;;;;5032270;28;20060;-73
2021/07/22 01:46:19;;;;;;;18.40;11.23;;;17.00;99.90;;;;;;5027939;28;20123;-73
2021/07/22 01:48:45;;;;;;;18.23;11.15;;;17.00;99.90;;;;;;5031386;28;21059;-73
2021/07/22 01:51:12;;;;;;;19.10;10.90;;;16.90;99.90;;;;;;5036447;28;20101;-73
2021/07/22 01:53:39;;;;;;;17.15;11.20;;;16.70;99.90;;;;;;5040519;28;21140;-71
2021/07/22 01:56:08;;;;;;;15.77;10.85;;;16.80;99.90;;;;;;5040225;28;20080;-72
2021/07/22 01:58:35;;;;;;;16.30;9.98;;;16.60;99.90;;;;;;5040079;28;20101;-72
2021/07/22 02:01:03;;;;;;;18.85;11.52;;;16.70;99.90;;;;;;5041249;28;20554;-72
2021/07/22 02:03:30;;;;;;;18.30;11.25;;;16.70;99.90;;;;;;5038989;28;20956;-72
2021/07/22 02:05:57;;;;;;;17.55;11.63;;;16.50;99.90;;;;;;5040744;28;20045;-72
2021/07/22 02:08:24;;;;;;;17.80;11.68;;;16.50;99.90;;;;;;5039516;28;21679;-72
2021/07/22 02:10:51;;;;;;;19.08;11.05;;;16.60;99.90;;;;;;5040348;28;20133;-72
2021/07/22 02:13:19;;;;;;;23.77;11.68;;;16.50;99.90;;;;;;5039829;28;20102;-73
2021/07/22 02:15:46;;;;;;;17.42;11.68;;;16.50;99.90;;;;;;5042223;28;21728;-72
2021/07/22 02:18:13;;;;;;;19.80;11.32;;;16.40;99.90;;;;;;5039556;28;20181;-72
2021/07/22 02:20:40;;;;;;;20.40;12.60;;;16.50;99.90;;;;;;5041471;28;20044;-72
2021/07/22 02:23:07;;;;;;;19.67;12.10;;;16.40;99.90;;;;;;5041187;28;20052;-73
2021/07/22 02:25:35;;;;;;;18.45;10.93;;;16.30;99.90;;;;;;5042328;28;20097;-72
2021/07/22 02:28:02;;;;;;;20.00;12.02;;;16.20;99.90;;;;;;5041881;28;20064;-73
2021/07/22 02:30:31;;;;;;;20.70;12.45;;;16.20;99.90;;;;;;5042413;28;20147;-73
2021/07/22 02:32:58;;;;;;;19.83;11.82;;;16.10;99.90;;;;;;5042293;28;20565;-73
2021/07/22 02:35:25;;;;;;;19.42;11.98;;;16.10;99.90;;;;;;5041948;28;20902;-73
2021/07/22 02:37:52;;;;;;;17.42;11.50;;;16.20;99.90;;;;;;5042662;28;20520;-72
2021/07/22 02:40:20;;;;;;;17.50;11.18;;;16.10;99.90;;;;;;5044855;28;20044;-73
2021/07/22 02:42:47;;;;;;;21.73;12.68;;;16.20;99.90;;;;;;5043306;28;20509;-71
2021/07/22 02:45:14;;;;;;;21.67;12.70;;;16.00;99.90;;;;;;5043122;28;20105;-72
2021/07/22 02:47:42;;;;;;;22.15;13.52;;;16.00;99.90;;;;;;5042437;28;20052;-72
2021/07/22 02:50:10;;;;;;;21.90;12.50;;;16.00;99.90;;;;;;5042636;28;20075;-72
2021/07/22 02:52:37;;;;;;;22.05;13.07;;;16.00;99.90;;;;;;5044113;28;20145;-72
2021/07/22 02:55:05;;;;;;;23.30;12.75;;;15.80;99.90;;;;;;5043788;28;20080;-72
2021/07/22 02:57:32;;;;;;;18.30;11.75;;;15.90;99.90;;;;;;5042906;28;20049;-72
2021/07/22 02:59:59;;;;;;;20.90;13.40;;;16.00;99.90;;;;;;5042823;28;20048;-71
2021/07/22 03:02:26;;;;;;;19.17;12.23;;;15.90;99.90;;;;;;5041893;28;20072;-72
2021/07/22 03:04:54;;;;;;;19.38;12.52;;;15.80;99.90;;;;;;5042749;28;21109;-73
2021/07/22 03:07:21;;;;;;;19.63;12.65;;;15.80;99.90;;;;;;5042937;28;20056;-72
2021/07/22 03:09:48;;;;;;;18.70;12.68;;;15.90;99.90;;;;;;5042276;28;20122;-72
2021/07/22 03:12:15;;;;;;;21.23;12.30;;;15.80;99.90;;;;;;5041414;28;20080;-72
2021/07/22 03:14:42;;;;;;;21.60;13.10;;;15.80;99.90;;;;;;5043117;28;20064;-72
2021/07/22 03:17:10;;;;;;;18.92;12.35;;;15.80;99.90;;;;;;5041531;28;20083;-72
2021/07/22 03:19:36;;;;;;;21.63;12.77;;;15.70;99.90;;;;;;5041475;28;20117;-73
2021/07/22 03:22:05;;;;;;;20.45;12.95;;;15.70;99.90;;;;;;5042434;28;20084;-74
2021/07/22 03:24:32;;;;;;;20.85;13.02;;;15.70;99.90;;;;;;5041124;28;20056;-72
2021/07/22 03:27:00;;;;;;;23.42;14.35;;;15.60;99.90;;;;;;5041467;28;20045;-72
2021/07/22 03:29:27;;;;;;;22.88;14.15;;;15.60;99.90;;;;;;5039388;28;20417;-72
2021/07/22 03:31:54;;;;;;;21.00;13.93;;;15.60;99.90;;;;;;5040764;28;20508;-72
2021/07/22 03:34:21;;;;;;;22.42;14.57;;;15.60;99.90;;;;;;5039054;28;20117;-72
2021/07/22 03:36:48;;;;;;;24.73;14.38;;;15.70;99.90;;;;;;5040237;28;20462;-72
2021/07/22 03:39:16;;;;;;;23.73;14.52;;;15.70;99.90;;;;;;5037417;28;20052;-72
2021/07/22 03:41:48;;;;;;;20.95;13.07;;;15.70;99.90;;;;;;5039367;28;20056;-72
2021/07/22 03:44:15;;;;;;;20.35;13.25;;;15.60;99.90;;;;;;5038556;28;20052;-72
2021/07/22 03:46:43;;;;;;;20.65;13.50;;;15.60;99.90;;;;;;5038895;28;20127;-73
2021/07/22 03:49:10;;;;;;;28.15;14.70;;;15.50;99.90;;;;;;5037590;28;20104;-72
2021/07/22 03:51:37;;;;;;;20.88;13.52;;;15.60;99.90;;;;;;5039455;28;20053;-71
2021/07/22 03:54:05;;;;;;;20.25;12.95;;;15.50;99.90;;;;;;5039284;28;21138;-72
2021/07/22 03:56:34;;;;;;;24.20;15.10;;;15.40;99.90;;;;;;5038142;28;20045;-73
2021/07/22 03:59:01;;;;;;;24.38;15.07;;;15.50;99.90;;;;;;5037133;28;20056;-73
2021/07/22 04:01:28;;;;;;;25.98;13.52;;;15.40;99.90;;;;;;5036811;28;21388;-73
2021/07/22 04:03:55;;;;;;;24.65;14.63;;;15.50;99.90;;;;;;5040710;28;20080;-73
2021/07/22 04:06:22;;;;;;;23.27;13.93;;;15.50;99.90;;;;;;5038437;28;20135;-74
2021/07/22 04:08:49;;;;;;;18.70;12.73;;;15.50;99.90;;;;;;5037545;28;20056;-73
2021/07/22 04:11:16;;;;;;;22.40;14.48;;;15.70;99.90;;;;;;5037356;28;20056;-73
2021/07/22 04:13:44;;;;;;;22.77;14.30;;;15.60;99.90;;;;;;5038262;28;20061;-74
2021/07/22 04:16:11;;;;;;;25.00;13.68;;;15.60;99.90;;;;;;5038441;28;20125;-73
2021/07/22 04:18:38;;;;;;;24.92;14.50;;;15.70;99.90;;;;;;5038463;28;20044;-73
2021/07/22 04:21:05;;;;;;;22.67;14.00;;;15.60;99.90;;;;;;5038731;28;20098;-74
2021/07/22 04:23:32;;;;;;;22.02;14.27;;;15.50;99.90;;;;;;5036617;28;20075;-72
2021/07/22 04:25:59;;;;;;;22.08;14.07;;;15.50;99.90;;;;;;5036499;28;20080;-72
2021/07/22 04:28:26;;;;;;;25.42;14.15;;;15.50;99.90;;;;;;5035860;28;20080;-73
2021/07/22 04:30:54;;;;;;;19.90;13.02;;;15.50;99.90;;;;;;5035969;28;20585;-72
2021/07/22 04:33:21;;;;;;;21.75;13.75;;;15.70;99.90;;;;;;5036670;28;20091;-72
2021/07/22 04:35:48;;;;;;;23.88;14.98;;;15.60;99.90;;;;;;5036613;28;20095;-73
2021/07/22 04:38:15;;;;;;;23.15;13.95;;;15.60;99.90;;;;;;5034825;28;20682;-72
2021/07/22 04:40:42;;;;;;;19.13;12.52;;;15.70;99.90;;;;;;5037178;28;20512;-72
2021/07/22 04:43:09;;;;;;;23.55;12.95;;;15.80;99.90;;;;;;5036731;28;20052;-72
2021/07/22 04:45:36;;;;;;;19.65;13.63;;;15.80;99.90;;;;;;5036698;28;20756;-71
2021/07/22 04:48:05;;;;;;;22.02;13.65;;;15.80;99.90;;;;;;5034717;28;20122;-71
2021/07/22 04:50:32;;;;;;;24.02;13.77;;;15.80;99.90;;;;;;5037616;28;20077;-72
2021/07/22 04:53:00;;;;;;;22.73;12.48;;;15.90;99.90;;;;;;5037394;28;20079;-73
2021/07/22 04:55:27;;;;;;;22.25;14.07;;;15.80;99.90;;;;;;5038694;28;21650;-72
2021/07/22 04:58:00;;;;;;;20.23;13.70;;;15.80;99.90;;;;;;5038237;28;20092;-73
2021/07/22 05:00:28;;;;;;;25.25;14.35;;;16.00;99.90;;;;;;5039564;28;20157;-74
2021/07/22 05:02:58;;;;;;;20.42;14.05;;;16.00;99.90;;;;;;5040317;28;20455;-73
2021/07/22 05:05:27;;;;;;;23.95;15.02;;;16.00;99.90;;;;;;5038104;28;20051;-72
2021/07/22 05:07:54;;;;;;;21.05;13.50;;;16.00;99.90;;;;;;5038160;28;20090;-72
2021/07/22 05:10:21;;;;;;;23.52;14.55;;;16.10;99.90;;;;;;5038244;28;20101;-74
2021/07/22 05:12:48;;;;;;;23.75;14.02;;;16.10;99.90;;;;;;5039943;28;20068;-75
2021/07/22 05:15:15;;;;;;;22.08;14.13;;;16.10;99.90;;;;;;5038929;28;20091;-74
2021/07/22 05:17:42;;;;;;;21.05;13.90;;;16.10;99.90;;;;;;5038578;28;20185;-75
2021/07/22 05:20:10;;;;;;;20.38;14.07;;;16.20;99.90;;;;;;5038670;28;20232;-75
2021/07/22 05:22:38;;;;;;;24.20;13.77;;;16.30;99.90;;;;;;5040081;28;20072;-74
2021/07/22 05:25:06;;;;;;;23.65;13.93;;;16.40;99.90;;;;;;5038823;28;20128;-72
2021/07/22 05:27:33;;;;;;;23.02;13.80;;;16.40;99.90;;;;;;5040341;28;20036;-73
2021/07/22 05:30:00;;;;;;;23.30;13.10;;;16.40;99.90;;;;;;5042733;28;20101;-73
2021/07/22 05:32:27;;;;;;;24.55;15.40;;;16.40;99.90;;;;;;5036518;28;20530;-73
2021/07/22 05:34:54;;;;;;;24.45;14.32;;;16.50;99.90;;;;;;5043305;28;21109;-73
2021/07/22 05:37:21;;;;;;;19.40;13.43;;;16.60;99.90;;;;;;5045318;28;20693;-73
2021/07/22 05:39:49;;;;;;;22.60;13.52;;;16.50;99.90;;;;;;5043831;28;20137;-73
2021/07/22 05:42:16;;;;;;;30.15;13.23;;;16.60;99.90;;;;;;5043420;28;21074;-75
2021/07/22 05:44:43;;;;;;;28.40;14.40;;;16.70;99.90;;;;;;5043667;28;20119;-73
2021/07/22 05:47:10;;;;;;;28.23;14.65;;;16.70;99.90;;;;;;5043376;28;20045;-72
2021/07/22 05:49:37;;;;;;;24.25;14.05;;;16.80;99.90;;;;;;5042274;28;20045;-73
2021/07/22 05:52:05;;;;;;;20.75;13.25;;;16.90;99.90;;;;;;5044762;28;20079;-74
2021/07/22 05:54:32;;;;;;;23.63;14.25;;;16.90;99.90;;;;;;5039486;28;20087;-73
2021/07/22 05:57:00;;;;;;;21.60;12.80;;;17.00;99.90;;;;;;5032991;28;20088;-73
2021/07/22 05:59:27;;;;;;;27.48;12.68;;;17.00;99.90;;;;;;5031109;28;20157;-74
2021/07/22 06:01:54;;;;;;;23.80;12.77;;;17.10;99.90;;;;;;5032977;28;20068;-73
2021/07/22 06:04:21;;;;;;;21.67;12.45;;;17.10;99.90;;;;;;5034087;28;20135;-73
2021/07/22 06:06:48;;;;;;;22.60;12.80;;;17.20;99.90;;;;;;5033890;28;20076;-72
2021/07/22 06:09:15;;;;;;;22.38;13.52;;;17.20;99.90;;;;;;5032292;28;20157;-74
2021/07/22 06:11:42;;;;;;;18.92;11.98;;;17.30;99.90;;;;;;5039110;28;20091;-74
2021/07/22 06:14:10;;;;;;;22.63;12.30;;;17.30;99.90;;;;;;5038508;28;20044;-74
2021/07/22 06:16:37;;;;;;;24.63;11.40;;;17.40;99.90;;;;;;5040586;28;20120;-74
2021/07/22 06:19:04;;;;;;;18.67;12.07;;;17.40;99.90;;;;;;5040089;28;21169;-74
2021/07/22 06:21:31;;;;;;;20.13;11.68;;;17.40;99.90;;;;;;5042138;28;20084;-74
2021/07/22 06:23:58;;;;;;;21.50;11.05;;;17.60;99.90;;;;;;5043782;28;20102;-73
2021/07/22 06:26:25;;;;;;;18.50;10.95;;;17.60;99.90;;;;;;5039232;28;20224;-73
2021/07/22 06:28:52;;;;;;;23.33;11.52;;;17.70;99.90;;;;;;5041645;28;20051;-73
2021/07/22 06:31:20;;;;;;;16.73;11.20;;;17.80;99.90;;;;;;5043918;28;20421;-73
2021/07/22 06:33:47;;;;;;;17.60;10.60;;;17.90;99.90;;;;;;5050582;28;20053;-73
2021/07/22 06:36:14;;;;;;;18.83;10.48;;;18.00;99.90;;;;;;5051033;28;20088;-73
2021/07/22 06:38:41;;;;;;;20.48;11.10;;;18.10;99.90;;;;;;5050718;28;20052;-73
2021/07/22 06:41:08;;;;;;;23.15;11.40;;;18.20;99.90;;;;;;5049985;28;20130;-72
2021/07/22 06:43:35;;;;;;;21.30;11.50;;;18.30;99.90;;;;;;5048967;28;20455;-72
2021/07/22 06:46:02;;;;;;;18.30;10.80;;;18.40;99.90;;;;;;5049373;28;20052;-73
2021/07/22 06:48:30;;;;;;;21.10;10.73;;;18.50;99.90;;;;;;5047588;28;20695;-73
2021/07/22 06:50:57;;;;;;;18.88;10.65;;;18.60;99.90;;;;;;5047777;28;20134;-73
2021/07/22 06:53:24;;;;;;;17.42;10.85;;;18.70;99.90;;;;;;5043847;28;20476;-73
2021/07/22 06:55:52;;;;;;;16.88;10.10;;;18.70;99.90;;;;;;5048438;28;20649;-72
2021/07/22 06:58:20;;;;;;;17.48;9.82;;;18.70;99.90;;;;;;5046266;28;20130;-73
2021/07/22 07:00:47;;;;;;;19.67;10.13;;;18.80;99.90;;;;;;5048691;28;20048;-73
2021/07/22 07:03:13;;;;;;;15.43;10.30;;;19.00;99.90;;;;;;5047657;28;20051;-70
2021/07/22 07:05:52;;;;;;;20.63;10.63;;;19.10;99.90;;;;;;5041683;28;20570;-74
2021/07/22 07:08:30;;;;;;;17.50;9.85;;;19.20;99.90;;;;;;5034435;28;20400;-76
2021/07/22 07:10:57;;;;;;;21.65;10.80;;;19.40;99.90;;;;;;5046409;28;20121;-76
2021/07/22 07:13:25;;;;;;;19.70;10.50;;;19.50;99.90;;;;;;5049043;28;20140;-74
2021/07/22 07:15:52;;;;;;;22.35;11.13;;;19.50;99.90;;;;;;5052322;28;20053;-76
2021/07/22 07:18:19;;;;;;;18.75;10.27;;;19.60;99.90;;;;;;5050905;28;20143;-76
2021/07/22 07:20:47;;;;;;;15.95;9.77;;;19.70;99.90;;;;;;5052006;28;20045;-76
2021/07/22 07:23:14;;;;;;;16.08;9.43;;;19.80;99.90;;;;;;5050290;28;20084;-76
2021/07/22 07:25:41;;;;;;;22.63;10.13;;;19.90;99.90;;;;;;5051706;28;20080;-75
2021/07/22 07:28:08;;;;;;;17.38;10.38;;;20.00;99.90;;;;;;5047860;28;20104;-75
2021/07/22 07:30:35;;;;;;;20.95;9.95;;;20.10;99.90;;;;;;5047197;28;20053;-76
2021/07/22 07:33:02;;;;;;;18.60;9.10;;;20.10;99.90;;;;;;5047458;28;20135;-76
2021/07/22 07:35:29;;;;;;;21.38;9.65;;;20.20;99.90;;;;;;5044767;28;20052;-74
2021/07/22 07:37:57;;;;;;;17.67;9.82;;;20.40;99.90;;;;;;5046218;28;20575;-74
2021/07/22 07:40:24;;;;;;;16.90;9.43;;;20.50;99.90;;;;;;5045580;28;20098;-75
2021/07/22 07:42:51;;;;;;;16.42;9.95;;;20.60;99.90;;;;;;5044769;28;20454;-75
2021/07/22 07:45:18;;;;;;;14.57;8.73;;;20.80;99.90;;;;;;5041318;28;20080;-75
2021/07/22 07:47:46;;;;;;;18.45;9.27;;;20.70;99.90;;;;;;5036964;28;20461;-74
2021/07/22 07:50:13;;;;;;;15.30;8.80;;;20.90;99.90;;;;;;5040682;28;20051;-76
2021/07/22 07:52:40;;;;;;;14.20;8.48;;;20.90;99.90;;;;;;5044948;28;20048;-74
2021/07/22 07:55:10;;;;;;;19.52;9.32;;;21.00;99.90;;;;;;5044538;28;20053;-75
2021/07/22 07:57:37;;;;;;;15.10;8.98;;;21.20;99.90;;;;;;5048300;28;20122;-75
2021/07/22 08:00:06;;;;;;;15.68;9.20;;;21.40;99.90;;;;;;5042591;28;20088;-75
2021/07/22 08:02:33;;;;;;;14.07;8.23;;;21.40;99.90;;;;;;5042030;28;20068;-75
2021/07/22 08:05:01;;;;;;;15.93;8.63;;;21.50;99.90;;;;;;5044883;28;20094;-76
2021/07/22 08:07:29;;;;;;;11.85;7.68;;;21.80;99.90;;;;;;5042857;28;20052;-75
2021/07/22 08:09:56;;;;;;;13.20;8.38;;;22.00;99.90;;;;;;5043975;28;20076;-75
2021/07/22 08:12:24;;;;;;;13.32;7.68;;;22.10;99.90;;;;;;5045576;28;20071;-75
2021/07/22 08:14:51;;;;;;;16.17;7.38;;;22.20;99.90;;;;;;5041162;28;20048;-75
2021/07/22 08:17:21;;;;;;;13.82;7.80;;;22.60;99.90;;;;;;5046458;28;20113;-76
2021/07/22 08:19:47;;;;;;;13.73;8.07;;;22.90;99.90;;;;;;5045448;28;20496;-75
2021/07/22 08:22:14;;;;;;;13.02;7.43;;;22.90;99.90;;;;;;5045395;28;20127;-75
2021/07/22 08:24:41;;;;;;;11.65;7.20;;;22.80;99.90;;;;;;5044026;28;20084;-76
2021/07/22 08:27:08;;;;;;;19.13;8.38;;;22.90;99.90;;;;;;5044316;28;20080;-76
2021/07/22 08:29:40;;;;;;;17.95;7.72;;;23.10;99.90;;;;;;5040433;28;20056;-75
2021/07/22 08:32:08;;;;;;;16.15;8.20;;;22.90;99.90;;;;;;5045442;28;20047;-75
2021/07/22 08:34:35;;;;;;;14.30;8.05;;;22.90;99.90;;;;;;5044278;28;20049;-77
2021/07/22 08:37:08;;;;;;;14.32;7.97;;;23.10;99.90;;;;;;5045539;28;20057;-75
2021/07/22 08:39:38;;;;;;;12.20;7.78;;;23.30;99.90;;;;;;5044645;28;20562;-75
2021/07/22 08:42:06;;;;;;;24.60;7.78;;;23.50;99.90;;;;;;5043426;28;20052;-75
2021/07/22 08:44:35;;;;;;;14.63;7.53;;;24.00;99.90;;;;;;5048098;28;20186;-75
2021/07/22 08:47:05;;;;;;;16.05;8.38;;;24.40;99.90;;;;;;5047118;28;20041;-75
2021/07/22 08:49:33;;;;;;;10.77;7.57;;;24.80;99.90;;;;;;5042079;28;20046;-75
2021/07/22 08:52:02;;;;;;;12.00;7.57;;;25.20;99.90;;;;;;5045859;28;20044;-75
2021/07/22 08:54:29;;;;;;;11.40;7.38;;;25.60;99.90;;;;;;5039542;28;20313;-75
2021/07/22 08:56:57;;;;;;;17.10;7.97;;;26.30;99.90;;;;;;5040057;28;20080;-75
2021/07/22 08:59:26;;;;;;;11.98;7.68;;;26.60;99.90;;;;;;5039702;28;20145;-75
2021/07/22 09:01:53;;;;;;;12.48;8.13;;;26.90;99.90;;;;;;5040324;28;20067;-75
2021/07/22 09:04:22;;;;;;;20.52;8.23;;;27.60;99.90;;;;;;5042053;28;20476;-75
2021/07/22 09:06:49;;;;;;;13.70;8.38;;;27.90;99.90;;;;;;5046912;28;20106;-75
2021/07/22 09:09:17;;;;;;;14.45;8.25;;;28.30;99.90;;;;;;5043420;28;20092;-76
2021/07/22 09:11:54;;;;;;;12.70;7.90;;;28.40;99.90;;;;;;5047911;28;20135;-76
2021/07/22 09:14:22;;;;;;;11.93;8.38;;;28.50;99.90;;;;;;5046347;28;20137;-76
2021/07/22 09:16:49;;;;;;;12.80;8.43;;;28.60;99.90;;;;;;5047735;28;20056;-76
2021/07/22 09:19:33;;;;;;;11.55;7.93;;;29.10;99.90;;;;;;5046369;28;20131;-76
2021/07/22 09:22:00;;;;;;;12.00;7.85;;;29.90;99.90;;;;;;5045023;28;20048;-76
2021/07/22 09:24:27;;;;;;;17.00;9.00;;;30.50;99.90;;;;;;5045289;28;20521;-76
2021/07/22 09:26:56;;;;;;;12.95;8.15;;;30.70;99.90;;;;;;5047159;28;20044;-76
2021/07/22 09:29:23;;;;;;;16.77;8.50;;;30.90;99.90;;;;;;5045793;28;20048;-76
2021/07/22 09:31:50;;;;;;;13.45;8.10;;;31.90;99.90;;;;;;5045804;28;20474;-75
2021/07/22 09:34:19;;;;;;;16.77;9.23;;;31.90;99.20;;;;;;5045284;28;20080;-75
2021/07/22 09:36:47;;;;;;;21.85;9.85;;;32.70;97.10;;;;;;5045093;28;20731;-75
2021/07/22 09:39:28;;;;;;;15.98;9.70;;;33.10;96.10;;;;;;5043700;28;20049;-76
2021/07/22 09:42:00;;;;;;;22.17;10.00;;;32.90;94.10;;;;;;5046691;28;20113;-76
2021/07/22 09:44:32;;;;;;;12.50;8.55;;;33.20;94.40;;;;;;5045129;28;20040;-75
2021/07/22 09:46:59;;;;;;;13.18;7.72;;;33.40;92.00;;;;;;5043536;28;20062;-73
2021/07/22 09:49:35;;;;;;;17.75;8.50;;;33.60;92.60;;;;;;5034836;28;20134;-73
2021/07/22 09:52:04;;;;;;;11.70;7.63;;;34.00;91.80;;;;;;5039697;28;20048;-73
2021/07/22 09:54:36;;;;;;;14.85;8.43;;;33.70;91.60;;;;;;5041559;28;20114;-74
2021/07/22 09:57:05;;;;;;;17.75;9.30;;;34.30;90.60;;;;;;5042234;28;20561;-74
2021/07/22 09:59:32;;;;;;;13.75;8.23;;;34.70;89.70;;;;;;5041184;28;20052;-74
2021/07/22 10:02:05;;;;;;;11.63;8.00;;;34.90;87.00;;;;;;5042552;28;20117;-74
2021/07/22 10:04:32;;;;;;;12.13;7.88;;;34.70;86.10;;;;;;5042750;28;20159;-75
2021/07/22 10:07:01;;;;;;;11.30;8.02;;;35.00;83.30;;;;;;5042472;28;20044;-74
2021/07/22 10:09:34;;;;;;;11.10;8.00;;;35.20;83.30;;;;;;5041920;28;20047;-74
2021/07/22 10:12:03;;;;;;;10.30;7.22;;;35.50;83.40;;;;;;5047917;28;20408;-74
2021/07/22 10:14:31;;;;;;;15.95;6.97;;;35.70;82.20;;;;;;5045447;28;20055;-76
2021/07/22 10:17:01;;;;;;;13.10;7.85;;;35.70;81.00;;;;;;5046349;28;20095;-75
2021/07/22 10:19:30;;;;;;;11.88;7.65;;;35.80;79.20;;;;;;5045240;28;20106;-74
2021/07/22 10:21:58;;;;;;;12.13;7.70;;;35.30;78.90;;;;;;5046574;28;20048;-74
2021/07/22 10:24:26;;;;;;;10.00;6.93;;;35.60;79.20;;;;;;5045933;28;20049;-74
2021/07/22 10:26:55;;;;;;;9.88;7.25;;;35.80;77.70;;;;;;5047510;28;20139;-72
2021/07/22 10:29:22;;;;;;;10.68;7.95;;;34.90;76.00;;;;;;5044931;28;20080;-73
2021/07/22 10:31:51;;;;;;;11.90;7.97;;;34.40;78.40;;;;;;5047590;28;20482;-73
2021/07/22 10:34:20;;;;;;;10.27;6.57;;;34.60;75.20;;;;;;5047368;28;20056;-74
2021/07/22 10:36:48;;;;;;;10.55;7.72;;;35.60;76.80;;;;;;5049001;28;21260;-74
2021/07/22 10:39:15;;;;;;;9.77;6.80;;;36.00;75.20;;;;;;5051051;28;20055;-74
2021/07/22 10:41:43;;;;;;;12.10;7.70;;;36.00;75.10;;;;;;5051001;28;20489;-74
2021/07/22 10:44:31;;;;;;;11.13;6.90;;;36.40;74.60;;;;;;5050717;28;20044;-73
2021/07/22 10:46:59;;;;;;;10.65;7.22;;;36.70;74.10;;;;;;5049510;28;20324;-74
2021/07/22 10:49:40;;;;;;;11.30;6.53;;;36.60;71.30;;;;;;5046911;28;20044;-74
2021/07/22 10:52:08;;;;;;;14.93;7.82;;;36.50;73.50;;;;;;5041721;28;20055;-74
2021/07/22 10:54:51;;;;;;;14.05;8.60;;;37.00;71.80;;;;;;5042210;28;20098;-74
2021/07/22 10:57:40;;;;;;;11.68;7.63;;;36.80;71.10;;;;;;5042056;28;20044;-74
2021/07/22 11:00:10;;;;;;;9.80;7.22;;;36.80;70.30;;;;;;5042745;28;20052;-74
2021/07/22 11:02:55;;;;;;;10.77;7.55;;;37.30;70.40;;;;;;5042219;28;20463;-73
2021/07/22 11:05:56;;;;;;;16.50;8.30;;;37.40;69.60;;;;;;5043572;28;20048;-73
2021/07/22 11:08:25;;;;;;;10.60;7.93;;;37.20;68.40;;;;;;5049244;28;20040;-73
2021/07/22 11:10:54;;;;;;;11.18;7.63;;;35.30;70.50;;;;;;5050513;28;20044;-73
2021/07/22 11:13:42;;;;;;;11.40;7.40;;;35.70;69.70;;;;;;5050851;28;20121;-73
2021/07/22 11:16:11;;;;;;;10.80;7.97;;;36.30;69.70;;;;;;5042864;28;20056;-74
2021/07/22 11:18:51;;;;;;;11.05;7.10;;;36.20;68.20;;;;;;5041010;28;20517;-75
2021/07/22 11:21:23;;;;;;;12.27;8.10;;;36.30;67.20;;;;;;5040309;28;20335;-73
2021/07/22 11:24:16;;;;;;;11.95;7.30;;;35.60;68.80;;;;;;5038287;28;20119;-73
2021/07/22 11:26:43;;;;;;;11.48;7.43;;;35.00;69.20;;;;;;5031023;28;20979;-74
2021/07/22 11:29:12;;;;;;;9.75;6.88;;;33.70;66.50;;;;;;5036782;28;20052;-73
2021/07/22 11:31:41;;;;;;;12.02;7.05;;;33.20;68.30;;;;;;5040822;28;20482;-73
2021/07/22 11:34:08;;;;;;;10.85;6.97;;;34.50;70.20;;;;;;5040495;28;20582;-73
2021/07/22 11:36:36;;;;;;;9.68;6.35;;;35.20;68.80;;;;;;5045721;28;20137;-73
2021/07/22 11:39:04;;;;;;;12.82;7.18;;;35.10;64.10;;;;;;5042261;28;20079;-73
2021/07/22 11:41:31;;;;;;;10.45;7.13;;;34.20;69.30;;;;;;5044604;28;20374;-73
2021/07/22 11:44:00;;;;;;;10.68;7.07;;;33.40;70.60;;;;;;5044235;28;20138;-73
2021/07/22 11:46:38;;;;;;;10.48;6.95;;;33.30;69.50;;;;;;5045076;28;20048;-73
2021/07/22 11:49:11;;;;;;;11.02;6.90;;;33.40;72.20;;;;;;5043825;28;20125;-74
2021/07/22 11:51:40;;;;;;;15.93;7.88;;;34.20;69.30;;;;;;5045689;28;20048;-73
2021/07/22 11:54:07;;;;;;;11.10;6.78;;;33.00;70.30;;;;;;5045885;28;20040;-73
2021/07/22 11:56:36;;;;;;;10.90;7.75;;;32.80;71.80;;;;;;5047788;28;20048;-76
2021/07/22 11:59:07;;;;;;;9.65;6.57;;;33.60;69.50;;;;;;5045626;28;20072;-75
2021/07/22 12:01:35;;;;;;;11.43;7.45;;;33.60;69.40;;;;;;5045778;28;20052;-75
2021/07/22 12:04:03;;;;;;;11.07;6.97;;;33.90;68.10;;;;;;5046035;28;20448;-76
2021/07/22 12:06:31;;;;;;;11.55;6.57;;;34.70;67.20;;;;;;5045460;28;20477;-76
2021/07/22 12:09:02;;;;;;;11.18;6.55;;;35.40;66.20;;;;;;5045938;28;20088;-76
2021/07/22 12:11:29;;;;;;;10.20;6.93;;;35.20;66.10;;;;;;5045446;28;20052;-76
2021/07/22 12:13:56;;;;;;;11.30;6.85;;;35.30;66.50;;;;;;5046319;28;20076;-75
2021/07/22 12:16:25;;;;;;;10.23;6.60;;;34.10;65.40;;;;;;5048633;28;20126;-75
2021/07/22 12:18:53;;;;;;;10.20;6.40;;;34.00;66.70;;;;;;5047886;28;20171;-75
2021/07/22 12:21:24;;;;;;;13.52;7.25;;;33.10;66.60;;;;;;5047742;28;20852;-75
2021/07/22 12:23:53;;;;;;;9.05;6.00;;;32.50;69.80;;;;;;5048383;28;20054;-75
2021/07/22 12:26:21;;;;;;;9.48;6.85;;;33.30;68.00;;;;;;5048082;28;20049;-76
2021/07/22 12:29:00;;;;;;;14.15;7.00;;;34.20;65.70;;;;;;5044674;28;20090;-76
2021/07/22 12:31:27;;;;;;;10.55;6.65;;;33.60;65.90;;;;;;5047467;28;20111;-76
2021/07/22 12:33:58;;;;;;;13.10;7.35;;;33.10;67.20;;;;;;5046745;28;20132;-76
2021/07/22 12:36:26;;;;;;;9.93;6.75;;;33.70;66.00;;;;;;5047014;28;20145;-76
2021/07/22 12:39:14;;;;;;;11.75;6.68;;;33.10;66.00;;;;;;5043199;28;20052;-76